sensor_id;sensor_type;location;lat;lon;timestamp;temperature;humidity
44723;DHT22;30451;48.638;10.624;2024-01-25T00:01:11;20.20;50.80
44723;DHT22;30451;48.638;10.624;2024-01-25T00:03:37;20.10;50.70
44723;DHT22;30451;48.638;10.624;2024-01-25T00:06:03;20.10;50.70
44723;DHT22;30451;48.638;10.624;2024-01-25T00:08:29;20.10;50.70
44723;DHT22;30451;48.638;10.624;2024-01-25T00:10:55;20.10;50.70
44723;DHT22;30451;48.638;10.624;2024-01-25T00:13:20;20.10;50.70
44723;DHT22;30451;48.638;10.624;2024-01-25T00:15:46;20.10;50.70
44723;DHT22;30451;48.638;10.624;2024-01-25T00:18:12;20.10;50.70
44723;DHT22;30451;48.638;10.624;2024-01-25T00:20:37;20.10;50.80
44723;DHT22;30451;48.638;10.624;2024-01-25T00:23:03;20.10;50.80
44723;DHT22;30451;48.638;10.624;2024-01-25T00:25:29;20.00;50.70
44723;DHT22;30451;48.638;10.624;2024-01-25T00:27:54;20.10;50.80
44723;DHT22;30451;48.638;10.624;2024-01-25T00:30:20;20.10;50.80
44723;DHT22;30451;48.638;10.624;2024-01-25T00:32:45;20.00;50.70
44723;DHT22;30451;48.638;10.624;2024-01-25T00:35:12;20.00;50.70
44723;DHT22;30451;48.638;10.624;2024-01-25T00:37:40;20.10;50.80
44723;DHT22;30451;48.638;10.624;2024-01-25T00:40:06;20.00;50.70
44723;DHT22;30451;48.638;10.624;2024-01-25T00:42:39;20.00;50.70
44723;DHT22;30451;48.638;10.624;2024-01-25T00:45:09;20.00;50.80
44723;DHT22;30451;48.638;10.624;2024-01-25T00:47:35;20.00;50.70
44723;DHT22;30451;48.638;10.624;2024-01-25T00:50:01;20.00;50.70
44723;DHT22;30451;48.638;10.624;2024-01-25T00:52:27;20.00;50.80
44723;DHT22;30451;48.638;10.624;2024-01-25T00:54:53;20.00;50.70
44723;DHT22;30451;48.638;10.624;2024-01-25T00:57:19;20.00;50.70
44723;DHT22;30451;48.638;10.624;2024-01-25T00:59:45;20.00;50.80
44723;DHT22;30451;48.638;10.624;2024-01-25T01:02:12;20.00;50.80
44723;DHT22;30451;48.638;10.624;2024-01-25T01:04:38;20.00;50.80
44723;DHT22;30451;48.638;10.624;2024-01-25T01:07:04;19.90;50.80
44723;DHT22;30451;48.638;10.624;2024-01-25T01:09:30;20.00;50.80
44723;DHT22;30451;48.638;10.624;2024-01-25T01:11:56;20.00;50.80
44723;DHT22;30451;48.638;10.624;2024-01-25T01:14:22;19.90;50.70
44723;DHT22;30451;48.638;10.624;2024-01-25T01:16:47;19.90;50.70
44723;DHT22;30451;48.638;10.624;2024-01-25T01:19:13;19.90;50.70
44723;DHT22;30451;48.638;10.624;2024-01-25T01:21:39;19.90;50.80
44723;DHT22;30451;48.638;10.624;2024-01-25T01:24:12;19.90;50.70
44723;DHT22;30451;48.638;10.624;2024-01-25T01:26:37;19.90;50.80
44723;DHT22;30451;48.638;10.624;2024-01-25T01:29:03;19.90;50.70
44723;DHT22;30451;48.638;10.624;2024-01-25T01:31:29;19.90;50.70
44723;DHT22;30451;48.638;10.624;2024-01-25T01:36:20;19.90;50.70
44723;DHT22;30451;48.638;10.624;2024-01-25T01:38:46;19.90;50.70
44723;DHT22;30451;48.638;10.624;2024-01-25T01:41:12;19.90;50.70
44723;DHT22;30451;48.638;10.624;2024-01-25T01:43:40;19.90;50.70
44723;DHT22;30451;48.638;10.624;2024-01-25T01:46:33;19.80;50.70
44723;DHT22;30451;48.638;10.624;2024-01-25T01:49:06;19.80;50.70
44723;DHT22;30451;48.638;10.624;2024-01-25T01:51:33;19.80;50.70
44723;DHT22;30451;48.638;10.624;2024-01-25T01:54:03;19.80;50.70
44723;DHT22;30451;48.638;10.624;2024-01-25T01:56:31;19.80;50.70
44723;DHT22;30451;48.638;10.624;2024-01-25T01:59:01;19.80;50.70
44723;DHT22;30451;48.638;10.624;2024-01-25T02:01:28;19.80;50.70
44723;DHT22;30451;48.638;10.624;2024-01-25T02:03:54;19.80;51.20
44723;DHT22;30451;48.638;10.624;2024-01-25T02:06:21;19.80;50.70
44723;DHT22;30451;48.638;10.624;2024-01-25T02:08:49;19.80;50.70
44723;DHT22;30451;48.638;10.624;2024-01-25T02:11:16;19.80;51.20
44723;DHT22;30451;48.638;10.624;2024-01-25T02:13:42;19.80;50.70
44723;DHT22;30451;48.638;10.624;2024-01-25T02:16:08;19.80;50.70
44723;DHT22;30451;48.638;10.624;2024-01-25T02:18:34;19.80;50.80
44723;DHT22;30451;48.638;10.624;2024-01-25T02:21:00;19.80;50.80
44723;DHT22;30451;48.638;10.624;2024-01-25T02:23:25;19.80;50.80
44723;DHT22;30451;48.638;10.624;2024-01-25T02:25:51;19.80;50.80
44723;DHT22;30451;48.638;10.624;2024-01-25T02:28:17;19.70;50.70
44723;DHT22;30451;48.638;10.624;2024-01-25T02:30:42;19.70;50.70
44723;DHT22;30451;48.638;10.624;2024-01-25T02:33:08;19.70;50.80
44723;DHT22;30451;48.638;10.624;2024-01-25T02:35:34;19.70;50.70
44723;DHT22;30451;48.638;10.624;2024-01-25T02:37:59;19.70;50.70
44723;DHT22;30451;48.638;10.624;2024-01-25T02:40:25;19.70;50.80
44723;DHT22;30451;48.638;10.624;2024-01-25T02:42:51;19.70;50.80
44723;DHT22;30451;48.638;10.624;2024-01-25T02:45:16;19.70;50.80
44723;DHT22;30451;48.638;10.624;2024-01-25T02:47:42;19.70;50.80
44723;DHT22;30451;48.638;10.624;2024-01-25T02:50:08;19.70;50.80
44723;DHT22;30451;48.638;10.624;2024-01-25T02:52:34;19.70;50.80
44723;DHT22;30451;48.638;10.624;2024-01-25T02:55:00;19.70;50.80
44723;DHT22;30451;48.638;10.624;2024-01-25T02:57:26;19.70;50.80
44723;DHT22;30451;48.638;10.624;2024-01-25T02:59:51;19.70;50.80
44723;DHT22;30451;48.638;10.624;2024-01-25T03:02:17;19.70;50.80
44723;DHT22;30451;48.638;10.624;2024-01-25T03:04:45;19.70;50.80
44723;DHT22;30451;48.638;10.624;2024-01-25T03:07:11;19.60;51.20
44723;DHT22;30451;48.638;10.624;2024-01-25T03:09:36;19.60;50.80
44723;DHT22;30451;48.638;10.624;2024-01-25T03:12:02;19.70;50.80
44723;DHT22;30451;48.638;10.624;2024-01-25T03:14:28;19.60;50.70
44723;DHT22;30451;48.638;10.624;2024-01-25T03:16:57;19.70;50.80
44723;DHT22;30451;48.638;10.624;2024-01-25T03:19:27;19.60;50.70
44723;DHT22;30451;48.638;10.624;2024-01-25T03:21:53;19.60;50.70
44723;DHT22;30451;48.638;10.624;2024-01-25T03:24:20;19.60;50.80
44723;DHT22;30451;48.638;10.624;2024-01-25T03:26:46;19.60;50.90
44723;DHT22;30451;48.638;10.624;2024-01-25T03:29:11;19.60;50.80
44723;DHT22;30451;48.638;10.624;2024-01-25T03:31:37;19.60;51.30
44723;DHT22;30451;48.638;10.624;2024-01-25T03:34:03;19.60;50.80
44723;DHT22;30451;48.638;10.624;2024-01-25T03:36:29;19.60;50.80
44723;DHT22;30451;48.638;10.624;2024-01-25T03:38:54;19.60;50.80
44723;DHT22;30451;48.638;10.624;2024-01-25T03:41:20;19.60;50.80
44723;DHT22;30451;48.638;10.624;2024-01-25T03:43:46;19.60;50.80
44723;DHT22;30451;48.638;10.624;2024-01-25T03:46:12;19.60;50.80
44723;DHT22;30451;48.638;10.624;2024-01-25T03:48:38;19.60;50.80
44723;DHT22;30451;48.638;10.624;2024-01-25T03:51:04;19.60;50.80
44723;DHT22;30451;48.638;10.624;2024-01-25T03:53:30;19.50;50.70
44723;DHT22;30451;48.638;10.624;2024-01-25T03:55:55;19.60;50.80
44723;DHT22;30451;48.638;10.624;2024-01-25T03:58:21;19.60;50.80
44723;DHT22;30451;48.638;10.624;2024-01-25T04:00:46;19.60;50.80
44723;DHT22;30451;48.638;10.624;2024-01-25T04:03:13;19.50;50.70
44723;DHT22;30451;48.638;10.624;2024-01-25T04:05:38;19.60;50.80
44723;DHT22;30451;48.638;10.624;2024-01-25T04:08:07;19.50;50.70
44723;DHT22;30451;48.638;10.624;2024-01-25T04:10:33;19.50;50.70
44723;DHT22;30451;48.638;10.624;2024-01-25T04:12:59;19.50;50.70
44723;DHT22;30451;48.638;10.624;2024-01-25T04:15:29;19.50;50.70
44723;DHT22;30451;48.638;10.624;2024-01-25T04:17:55;19.50;50.70
44723;DHT22;30451;48.638;10.624;2024-01-25T04:20:21;19.60;50.80
44723;DHT22;30451;48.638;10.624;2024-01-25T04:22:47;19.50;50.80
44723;DHT22;30451;48.638;10.624;2024-01-25T04:25:13;19.50;50.70
44723;DHT22;30451;48.638;10.624;2024-01-25T04:27:38;19.50;50.80
44723;DHT22;30451;48.638;10.624;2024-01-25T04:30:05;19.50;50.80
44723;DHT22;30451;48.638;10.624;2024-01-25T04:32:31;19.50;50.80
44723;DHT22;30451;48.638;10.624;2024-01-25T04:34:57;19.50;50.80
44723;DHT22;30451;48.638;10.624;2024-01-25T04:37:22;19.50;50.80
44723;DHT22;30451;48.638;10.624;2024-01-25T04:39:48;19.50;50.80
44723;DHT22;30451;48.638;10.624;2024-01-25T04:42:13;19.50;50.80
44723;DHT22;30451;48.638;10.624;2024-01-25T04:44:39;19.50;50.80
44723;DHT22;30451;48.638;10.624;2024-01-25T04:47:05;19.50;50.80
44723;DHT22;30451;48.638;10.624;2024-01-25T04:49:30;19.50;50.80
44723;DHT22;30451;48.638;10.624;2024-01-25T04:51:56;19.50;50.90
44723;DHT22;30451;48.638;10.624;2024-01-25T04:54:22;19.50;51.30
44723;DHT22;30451;48.638;10.624;2024-01-25T04:56:47;19.50;50.90
44723;DHT22;30451;48.638;10.624;2024-01-25T04:59:13;19.50;50.80
44723;DHT22;30451;48.638;10.624;2024-01-25T05:01:38;19.40;50.80
44723;DHT22;30451;48.638;10.624;2024-01-25T05:04:04;19.50;50.90
44723;DHT22;30451;48.638;10.624;2024-01-25T05:06:30;19.50;50.90
44723;DHT22;30451;48.638;10.624;2024-01-25T05:08:56;19.40;50.80
44723;DHT22;30451;48.638;10.624;2024-01-25T05:11:21;19.50;50.90
44723;DHT22;30451;48.638;10.624;2024-01-25T05:13:47;19.40;50.80
44723;DHT22;30451;48.638;10.624;2024-01-25T05:16:13;19.50;50.90
44723;DHT22;30451;48.638;10.624;2024-01-25T05:18:38;19.40;50.90
44723;DHT22;30451;48.638;10.624;2024-01-25T05:21:04;19.40;50.90
44723;DHT22;30451;48.638;10.624;2024-01-25T05:23:30;19.40;50.90
44723;DHT22;30451;48.638;10.624;2024-01-25T05:25:55;19.40;50.90
44723;DHT22;30451;48.638;10.624;2024-01-25T05:28:21;19.40;51.50
44723;DHT22;30451;48.638;10.624;2024-01-25T05:30:47;19.40;50.90
44723;DHT22;30451;48.638;10.624;2024-01-25T05:33:12;19.40;51.00
44723;DHT22;30451;48.638;10.624;2024-01-25T05:35:38;19.40;51.00
44723;DHT22;30451;48.638;10.624;2024-01-25T05:38:04;19.40;51.00
44723;DHT22;30451;48.638;10.624;2024-01-25T05:40:29;19.40;51.00
44723;DHT22;30451;48.638;10.624;2024-01-25T05:42:55;19.40;51.00
44723;DHT22;30451;48.638;10.624;2024-01-25T05:45:21;19.40;51.00
44723;DHT22;30451;48.638;10.624;2024-01-25T05:47:50;19.40;51.10
44723;DHT22;30451;48.638;10.624;2024-01-25T05:50:15;19.40;51.10
44723;DHT22;30451;48.638;10.624;2024-01-25T05:52:41;19.40;51.10
44723;DHT22;30451;48.638;10.624;2024-01-25T05:55:07;19.40;51.10
44723;DHT22;30451;48.638;10.624;2024-01-25T05:57:35;19.30;51.10
44723;DHT22;30451;48.638;10.624;2024-01-25T06:00:02;19.40;51.60
44723;DHT22;30451;48.638;10.624;2024-01-25T06:02:28;19.40;51.10
44723;DHT22;30451;48.638;10.624;2024-01-25T06:04:53;19.40;51.20
44723;DHT22;30451;48.638;10.624;2024-01-25T06:07:20;19.40;51.30
44723;DHT22;30451;48.638;10.624;2024-01-25T06:09:46;19.40;51.20
44723;DHT22;30451;48.638;10.624;2024-01-25T06:12:11;19.40;51.20
44723;DHT22;30451;48.638;10.624;2024-01-25T06:14:37;19.30;51.10
44723;DHT22;30451;48.638;10.624;2024-01-25T06:17:03;19.40;51.20
44723;DHT22;30451;48.638;10.624;2024-01-25T06:19:29;19.30;51.10
44723;DHT22;30451;48.638;10.624;2024-01-25T06:21:54;19.30;51.10
44723;DHT22;30451;48.638;10.624;2024-01-25T06:24:20;19.30;51.10
44723;DHT22;30451;48.638;10.624;2024-01-25T06:26:45;19.40;51.20
44723;DHT22;30451;48.638;10.624;2024-01-25T06:29:11;19.40;51.20
44723;DHT22;30451;48.638;10.624;2024-01-25T06:31:42;19.30;51.10
44723;DHT22;30451;48.638;10.624;2024-01-25T06:34:08;19.40;51.20
44723;DHT22;30451;48.638;10.624;2024-01-25T06:36:33;19.30;51.20
44723;DHT22;30451;48.638;10.624;2024-01-25T06:38:59;19.40;51.20
44723;DHT22;30451;48.638;10.624;2024-01-25T06:41:25;19.30;51.20
44723;DHT22;30451;48.638;10.624;2024-01-25T06:43:50;19.30;51.30
44723;DHT22;30451;48.638;10.624;2024-01-25T06:46:16;19.30;51.20
44723;DHT22;30451;48.638;10.624;2024-01-25T06:48:42;19.30;51.20
44723;DHT22;30451;48.638;10.624;2024-01-25T06:51:07;19.40;51.30
44723;DHT22;30451;48.638;10.624;2024-01-25T06:53:33;19.30;51.30
44723;DHT22;30451;48.638;10.624;2024-01-25T06:55:58;19.30;51.30
44723;DHT22;30451;48.638;10.624;2024-01-25T06:58:24;19.30;51.30
44723;DHT22;30451;48.638;10.624;2024-01-25T07:00:50;19.40;51.40
44723;DHT22;30451;48.638;10.624;2024-01-25T07:03:16;19.40;51.40
44723;DHT22;30451;48.638;10.624;2024-01-25T07:05:41;19.30;51.40
44723;DHT22;30451;48.638;10.624;2024-01-25T07:08:07;19.30;51.50
44723;DHT22;30451;48.638;10.624;2024-01-25T07:10:38;19.30;51.40
44723;DHT22;30451;48.638;10.624;2024-01-25T07:13:03;19.30;51.50
44723;DHT22;30451;48.638;10.624;2024-01-25T07:15:29;19.30;51.50
44723;DHT22;30451;48.638;10.624;2024-01-25T07:17:55;19.30;51.50
44723;DHT22;30451;48.638;10.624;2024-01-25T07:20:20;19.30;51.50
44723;DHT22;30451;48.638;10.624;2024-01-25T07:22:46;19.30;51.60
44723;DHT22;30451;48.638;10.624;2024-01-25T07:25:11;19.30;51.60
44723;DHT22;30451;48.638;10.624;2024-01-25T07:27:37;19.30;51.60
44723;DHT22;30451;48.638;10.624;2024-01-25T07:30:03;19.30;51.60
44723;DHT22;30451;48.638;10.624;2024-01-25T07:32:29;19.30;51.60
44723;DHT22;30451;48.638;10.624;2024-01-25T07:34:54;19.30;51.60
44723;DHT22;30451;48.638;10.624;2024-01-25T07:37:20;19.30;51.70
44723;DHT22;30451;48.638;10.624;2024-01-25T07:39:45;19.30;51.70
44723;DHT22;30451;48.638;10.624;2024-01-25T07:42:11;19.30;51.80
44723;DHT22;30451;48.638;10.624;2024-01-25T07:44:37;19.40;52.90
44723;DHT22;30451;48.638;10.624;2024-01-25T07:47:03;19.50;53.40
44723;DHT22;30451;48.638;10.624;2024-01-25T07:49:29;19.70;53.30
44723;DHT22;30451;48.638;10.624;2024-01-25T07:51:55;19.80;53.40
44723;DHT22;30451;48.638;10.624;2024-01-25T07:54:24;20.00;53.20
44723;DHT22;30451;48.638;10.624;2024-01-25T07:56:50;20.10;53.30
44723;DHT22;30451;48.638;10.624;2024-01-25T07:59:15;20.30;53.40
44723;DHT22;30451;48.638;10.624;2024-01-25T08:01:41;20.50;53.30
44723;DHT22;30451;48.638;10.624;2024-01-25T08:04:07;20.60;53.10
44723;DHT22;30451;48.638;10.624;2024-01-25T08:06:33;20.70;53.20
44723;DHT22;30451;48.638;10.624;2024-01-25T08:08:58;20.80;53.10
44723;DHT22;30451;48.638;10.624;2024-01-25T08:11:25;21.00;53.00
44723;DHT22;30451;48.638;10.624;2024-01-25T08:13:50;21.10;52.80
44723;DHT22;30451;48.638;10.624;2024-01-25T08:16:16;21.30;52.70
44723;DHT22;30451;48.638;10.624;2024-01-25T08:18:46;21.50;52.60
44723;DHT22;30451;48.638;10.624;2024-01-25T08:21:12;21.60;52.50
44723;DHT22;30451;48.638;10.624;2024-01-25T08:23:38;21.70;52.40
44723;DHT22;30451;48.638;10.624;2024-01-25T08:26:05;21.90;52.40
44723;DHT22;30451;48.638;10.624;2024-01-25T08:28:30;22.00;52.20
44723;DHT22;30451;48.638;10.624;2024-01-25T08:30:56;22.20;52.60
44723;DHT22;30451;48.638;10.624;2024-01-25T08:33:22;22.30;51.80
44723;DHT22;30451;48.638;10.624;2024-01-25T08:35:49;22.40;51.70
44723;DHT22;30451;48.638;10.624;2024-01-25T08:38:15;22.60;51.80
44723;DHT22;30451;48.638;10.624;2024-01-25T08:40:41;22.90;51.40
44723;DHT22;30451;48.638;10.624;2024-01-25T08:43:09;23.20;50.90
44723;DHT22;30451;48.638;10.624;2024-01-25T08:45:36;23.40;50.30
44723;DHT22;30451;48.638;10.624;2024-01-25T08:48:02;23.40;50.20
44723;DHT22;30451;48.638;10.624;2024-01-25T08:50:28;23.30;50.60
44723;DHT22;30451;48.638;10.624;2024-01-25T08:52:53;23.30;51.10
44723;DHT22;30451;48.638;10.624;2024-01-25T08:55:19;23.30;51.20
44723;DHT22;30451;48.638;10.624;2024-01-25T08:57:45;23.50;51.20
44723;DHT22;30451;48.638;10.624;2024-01-25T09:00:11;23.50;51.10
44723;DHT22;30451;48.638;10.624;2024-01-25T09:02:38;23.70;50.90
44723;DHT22;30451;48.638;10.624;2024-01-25T09:05:05;23.70;50.90
44723;DHT22;30451;48.638;10.624;2024-01-25T09:07:30;23.60;51.20
44723;DHT22;30451;48.638;10.624;2024-01-25T09:09:56;23.60;51.40
44723;DHT22;30451;48.638;10.624;2024-01-25T09:12:22;23.70;51.50
44723;DHT22;30451;48.638;10.624;2024-01-25T09:14:47;23.90;51.00
44723;DHT22;30451;48.638;10.624;2024-01-25T09:17:13;24.20;50.60
44723;DHT22;30451;48.638;10.624;2024-01-25T09:19:47;24.30;50.60
44723;DHT22;30451;48.638;10.624;2024-01-25T09:22:15;24.20;50.30
44723;DHT22;30451;48.638;10.624;2024-01-25T09:24:43;24.10;50.50
44723;DHT22;30451;48.638;10.624;2024-01-25T09:27:08;24.20;50.70
44723;DHT22;30451;48.638;10.624;2024-01-25T09:29:34;24.40;50.50
44723;DHT22;30451;48.638;10.624;2024-01-25T09:31:59;24.50;50.30
44723;DHT22;30451;48.638;10.624;2024-01-25T09:34:25;24.50;50.40
44723;DHT22;30451;48.638;10.624;2024-01-25T09:36:51;24.40;50.60
44723;DHT22;30451;48.638;10.624;2024-01-25T09:39:17;24.30;50.80
44723;DHT22;30451;48.638;10.624;2024-01-25T09:41:43;24.30;50.90
44723;DHT22;30451;48.638;10.624;2024-01-25T09:44:09;24.20;50.80
44723;DHT22;30451;48.638;10.624;2024-01-25T09:46:35;24.20;50.90
44723;DHT22;30451;48.638;10.624;2024-01-25T09:49:01;24.10;50.90
44723;DHT22;30451;48.638;10.624;2024-01-25T09:51:30;24.10;50.90
44723;DHT22;30451;48.638;10.624;2024-01-25T09:54:03;24.10;48.30
44723;DHT22;30451;48.638;10.624;2024-01-25T09:56:32;24.00;45.90
44723;DHT22;30451;48.638;10.624;2024-01-25T09:58:58;23.90;45.10
44723;DHT22;30451;48.638;10.624;2024-01-25T10:01:24;23.80;45.20
44723;DHT22;30451;48.638;10.624;2024-01-25T10:03:50;23.70;45.40
44723;DHT22;30451;48.638;10.624;2024-01-25T10:06:16;23.60;46.00
44723;DHT22;30451;48.638;10.624;2024-01-25T10:08:43;23.60;45.50
44723;DHT22;30451;48.638;10.624;2024-01-25T10:11:08;23.50;45.50
44723;DHT22;30451;48.638;10.624;2024-01-25T10:13:45;23.50;45.60
44723;DHT22;30451;48.638;10.624;2024-01-25T10:16:11;23.40;45.50
44723;DHT22;30451;48.638;10.624;2024-01-25T10:18:39;23.30;45.50
44723;DHT22;30451;48.638;10.624;2024-01-25T10:21:05;23.30;45.70
44723;DHT22;30451;48.638;10.624;2024-01-25T10:23:31;23.20;45.60
44723;DHT22;30451;48.638;10.624;2024-01-25T10:25:57;23.20;45.90
44723;DHT22;30451;48.638;10.624;2024-01-25T10:28:24;23.20;45.90
44723;DHT22;30451;48.638;10.624;2024-01-25T10:30:51;23.10;46.40
44723;DHT22;30451;48.638;10.624;2024-01-25T10:33:17;23.10;46.60
44723;DHT22;30451;48.638;10.624;2024-01-25T10:35:44;23.00;46.10
44723;DHT22;30451;48.638;10.624;2024-01-25T10:38:17;23.00;46.10
44723;DHT22;30451;48.638;10.624;2024-01-25T10:40:43;23.00;46.20
44723;DHT22;30451;48.638;10.624;2024-01-25T10:43:09;23.00;46.20
44723;DHT22;30451;48.638;10.624;2024-01-25T10:45:35;22.90;46.30
44723;DHT22;30451;48.638;10.624;2024-01-25T10:48:01;22.90;46.30
44723;DHT22;30451;48.638;10.624;2024-01-25T10:50:26;22.90;46.40
44723;DHT22;30451;48.638;10.624;2024-01-25T10:52:52;22.80;46.40
44723;DHT22;30451;48.638;10.624;2024-01-25T10:55:19;22.80;46.50
44723;DHT22;30451;48.638;10.624;2024-01-25T10:57:46;22.80;46.50
44723;DHT22;30451;48.638;10.624;2024-01-25T11:00:14;22.70;46.60
44723;DHT22;30451;48.638;10.624;2024-01-25T11:02:41;22.70;46.60
44723;DHT22;30451;48.638;10.624;2024-01-25T11:05:09;22.70;46.60
44723;DHT22;30451;48.638;10.624;2024-01-25T11:07:42;22.70;46.70
44723;DHT22;30451;48.638;10.624;2024-01-25T11:10:28;22.70;46.90
44723;DHT22;30451;48.638;10.624;2024-01-25T11:13:01;22.60;46.90
44723;DHT22;30451;48.638;10.624;2024-01-25T11:15:33;22.60;46.90
44723;DHT22;30451;48.638;10.624;2024-01-25T11:18:00;22.60;47.00
44723;DHT22;30451;48.638;10.624;2024-01-25T11:20:30;22.50;47.30
44723;DHT22;30451;48.638;10.624;2024-01-25T11:22:57;22.50;47.50
44723;DHT22;30451;48.638;10.624;2024-01-25T11:25:36;22.40;47.60
44723;DHT22;30451;48.638;10.624;2024-01-25T11:28:03;22.40;47.70
44723;DHT22;30451;48.638;10.624;2024-01-25T11:30:32;22.40;48.00
44723;DHT22;30451;48.638;10.624;2024-01-25T11:32:58;22.40;47.90
44723;DHT22;30451;48.638;10.624;2024-01-25T11:35:24;22.40;47.90
44723;DHT22;30451;48.638;10.624;2024-01-25T11:37:50;22.40;47.80
44723;DHT22;30451;48.638;10.624;2024-01-25T11:40:19;22.40;47.80
44723;DHT22;30451;48.638;10.624;2024-01-25T11:42:48;22.40;47.90
44723;DHT22;30451;48.638;10.624;2024-01-25T11:45:14;22.40;48.00
44723;DHT22;30451;48.638;10.624;2024-01-25T11:47:41;22.40;48.00
44723;DHT22;30451;48.638;10.624;2024-01-25T11:50:08;22.30;47.90
44723;DHT22;30451;48.638;10.624;2024-01-25T11:52:34;22.30;47.90
44723;DHT22;30451;48.638;10.624;2024-01-25T11:55:09;22.30;47.90
44723;DHT22;30451;48.638;10.624;2024-01-25T11:57:39;22.30;47.90
44723;DHT22;30451;48.638;10.624;2024-01-25T12:00:13;22.30;48.00
44723;DHT22;30451;48.638;10.624;2024-01-25T12:02:40;22.20;47.90
44723;DHT22;30451;48.638;10.624;2024-01-25T12:05:06;22.20;47.90
44723;DHT22;30451;48.638;10.624;2024-01-25T12:07:32;22.20;48.00
44723;DHT22;30451;48.638;10.624;2024-01-25T12:12:24;22.20;47.90
44723;DHT22;30451;48.638;10.624;2024-01-25T12:14:49;22.20;47.90
44723;DHT22;30451;48.638;10.624;2024-01-25T12:17:15;22.10;47.90
44723;DHT22;30451;48.638;10.624;2024-01-25T12:19:40;22.10;47.90
44723;DHT22;30451;48.638;10.624;2024-01-25T12:22:06;22.10;47.90
44723;DHT22;30451;48.638;10.624;2024-01-25T12:24:32;22.10;48.00
44723;DHT22;30451;48.638;10.624;2024-01-25T12:26:57;22.10;48.00
44723;DHT22;30451;48.638;10.624;2024-01-25T12:29:24;22.10;48.20
44723;DHT22;30451;48.638;10.624;2024-01-25T12:31:49;22.10;48.20
44723;DHT22;30451;48.638;10.624;2024-01-25T12:34:15;22.10;48.10
44723;DHT22;30451;48.638;10.624;2024-01-25T12:36:41;22.10;48.20
44723;DHT22;30451;48.638;10.624;2024-01-25T12:39:08;22.10;48.20
44723;DHT22;30451;48.638;10.624;2024-01-25T12:41:35;22.10;48.20
44723;DHT22;30451;48.638;10.624;2024-01-25T12:44:00;22.10;48.30
44723;DHT22;30451;48.638;10.624;2024-01-25T12:46:26;22.00;48.30
44723;DHT22;30451;48.638;10.624;2024-01-25T12:48:52;22.00;48.30
44723;DHT22;30451;48.638;10.624;2024-01-25T12:51:20;22.10;48.50
44723;DHT22;30451;48.638;10.624;2024-01-25T12:53:49;22.00;48.50
44723;DHT22;30451;48.638;10.624;2024-01-25T12:56:15;22.00;48.50
44723;DHT22;30451;48.638;10.624;2024-01-25T12:58:40;22.00;48.60
44723;DHT22;30451;48.638;10.624;2024-01-25T13:01:06;22.00;48.60
44723;DHT22;30451;48.638;10.624;2024-01-25T13:03:32;22.10;48.70
44723;DHT22;30451;48.638;10.624;2024-01-25T13:05:58;22.00;48.70
44723;DHT22;30451;48.638;10.624;2024-01-25T13:08:23;22.00;48.70
44723;DHT22;30451;48.638;10.624;2024-01-25T13:10:49;22.00;48.70
44723;DHT22;30451;48.638;10.624;2024-01-25T13:13:14;22.00;48.70
44723;DHT22;30451;48.638;10.624;2024-01-25T13:15:40;22.00;48.70
44723;DHT22;30451;48.638;10.624;2024-01-25T13:18:06;22.00;48.70
44723;DHT22;30451;48.638;10.624;2024-01-25T13:20:31;22.00;48.70
44723;DHT22;30451;48.638;10.624;2024-01-25T13:22:57;22.00;48.70
44723;DHT22;30451;48.638;10.624;2024-01-25T13:25:23;22.00;48.70
44723;DHT22;30451;48.638;10.624;2024-01-25T13:27:48;22.00;48.70
44723;DHT22;30451;48.638;10.624;2024-01-25T13:30:14;22.00;48.90
44723;DHT22;30451;48.638;10.624;2024-01-25T13:32:39;22.00;48.80
44723;DHT22;30451;48.638;10.624;2024-01-25T13:35:06;22.00;48.90
44723;DHT22;30451;48.638;10.624;2024-01-25T13:37:32;22.00;48.90
44723;DHT22;30451;48.638;10.624;2024-01-25T13:39:58;22.10;48.90
44723;DHT22;30451;48.638;10.624;2024-01-25T13:42:23;22.00;48.90
44723;DHT22;30451;48.638;10.624;2024-01-25T13:44:49;22.10;48.90
44723;DHT22;30451;48.638;10.624;2024-01-25T13:47:15;22.00;48.90
44723;DHT22;30451;48.638;10.624;2024-01-25T13:49:40;22.00;48.90
44723;DHT22;30451;48.638;10.624;2024-01-25T13:52:06;22.00;48.90
44723;DHT22;30451;48.638;10.624;2024-01-25T13:54:31;22.00;49.00
44723;DHT22;30451;48.638;10.624;2024-01-25T13:56:57;22.00;49.00
44723;DHT22;30451;48.638;10.624;2024-01-25T13:59:23;22.00;49.00
44723;DHT22;30451;48.638;10.624;2024-01-25T14:01:51;22.00;49.00
44723;DHT22;30451;48.638;10.624;2024-01-25T14:04:17;22.00;49.00
44723;DHT22;30451;48.638;10.624;2024-01-25T14:06:43;22.00;49.00
44723;DHT22;30451;48.638;10.624;2024-01-25T14:09:08;22.00;49.00
44723;DHT22;30451;48.638;10.624;2024-01-25T14:11:35;22.00;49.00
44723;DHT22;30451;48.638;10.624;2024-01-25T14:14:00;22.00;49.60
44723;DHT22;30451;48.638;10.624;2024-01-25T14:16:26;22.00;49.10
44723;DHT22;30451;48.638;10.624;2024-01-25T14:18:51;22.00;49.10
44723;DHT22;30451;48.638;10.624;2024-01-25T14:21:17;22.00;49.10
44723;DHT22;30451;48.638;10.624;2024-01-25T14:23:46;22.00;49.10
44723;DHT22;30451;48.638;10.624;2024-01-25T14:26:12;22.00;49.10
44723;DHT22;30451;48.638;10.624;2024-01-25T14:28:37;22.00;49.10
44723;DHT22;30451;48.638;10.624;2024-01-25T14:31:03;22.00;49.10
44723;DHT22;30451;48.638;10.624;2024-01-25T14:33:29;22.00;49.10
44723;DHT22;30451;48.638;10.624;2024-01-25T14:35:54;22.00;49.30
44723;DHT22;30451;48.638;10.624;2024-01-25T14:38:20;22.00;49.10
44723;DHT22;30451;48.638;10.624;2024-01-25T14:40:45;22.10;49.20
44723;DHT22;30451;48.638;10.624;2024-01-25T14:43:11;22.10;49.20
44723;DHT22;30451;48.638;10.624;2024-01-25T14:45:37;22.00;49.10
44723;DHT22;30451;48.638;10.624;2024-01-25T14:48:03;22.00;49.10
44723;DHT22;30451;48.638;10.624;2024-01-25T14:50:29;22.00;49.20
44723;DHT22;30451;48.638;10.624;2024-01-25T14:52:56;22.00;49.20
44723;DHT22;30451;48.638;10.624;2024-01-25T14:55:21;22.00;49.70
44723;DHT22;30451;48.638;10.624;2024-01-25T14:57:47;22.00;49.10
44723;DHT22;30451;48.638;10.624;2024-01-25T15:00:13;22.00;49.10
44723;DHT22;30451;48.638;10.624;2024-01-25T15:02:44;21.90;49.00
44723;DHT22;30451;48.638;10.624;2024-01-25T15:05:10;21.90;49.10
44723;DHT22;30451;48.638;10.624;2024-01-25T15:07:36;21.90;49.10
44723;DHT22;30451;48.638;10.624;2024-01-25T15:10:01;21.90;49.10
44723;DHT22;30451;48.638;10.624;2024-01-25T15:12:27;21.90;49.70
44723;DHT22;30451;48.638;10.624;2024-01-25T15:14:53;21.90;49.20